Time;durP1;ratioP1;P1;durP2;ratioP2;P2;SDS_P1;SDS_P2;PMS_P1;PMS_P2;Temp;Humidity;BMP_temperature;BMP_pressure;BME280_temperature;BME280_humidity;BME280_pressure;Samples;Min_cycle;Max_cycle;Signal;HPM_P1;HPM_P2
2023/09/05 00:00:12;;;;;;;5.00;2.72;;;;;;;14.85;83.59;94955.28;5069710;28;20033;-79
2023/09/05 00:02:38;;;;;;;4.47;2.17;;;;;;;14.89;83.34;94946.19;5053058;28;20047;-79
2023/09/05 00:05:07;;;;;;;3.05;2.10;;;;;;;14.80;83.07;94952.31;5069387;28;20033;-79
2023/09/05 00:07:37;;;;;;;4.38;2.03;;;;;;;14.63;83.70;94931.25;5054383;28;20032;-80
2023/09/05 00:10:13;;;;;;;3.70;2.30;;;;;;;14.95;82.84;94938.53;5090157;28;20054;-80
2023/09/05 00:12:42;;;;;;;3.10;2.10;;;;;;;14.97;82.85;94952.28;5053108;28;20507;-79
2023/09/05 00:15:12;;;;;;;2.90;2.10;;;;;;;14.97;82.12;94947.06;5069257;28;20557;-79
2023/09/05 00:17:38;;;;;;;4.38;2.45;;;;;;;14.87;82.27;94935.03;5052649;28;20028;-79
2023/09/05 00:20:07;;;;;;;2.92;2.30;;;;;;;14.87;82.96;94932.41;5052948;28;20039;-79
2023/09/05 00:22:32;;;;;;;4.35;2.00;;;;;;;14.79;82.35;94916.66;5065153;28;20036;-79
2023/09/05 00:24:58;;;;;;;3.75;2.50;;;;;;;14.97;82.10;94944.44;5052670;28;20422;-78
2023/09/05 00:27:23;;;;;;;2.60;1.92;;;;;;;14.89;82.67;94946.19;5069325;28;20081;-78
2023/09/05 00:29:49;;;;;;;3.45;2.38;;;;;;;14.63;82.53;94912.13;5074405;28;20035;-79
2023/09/05 00:32:14;;;;;;;5.93;2.30;;;;;;;14.80;83.08;94926.16;5071362;28;20410;-78
2023/09/05 00:34:40;;;;;;;4.03;2.47;;;;;;;14.80;82.27;94918.31;5089311;28;20089;-79
2023/09/05 00:37:08;;;;;;;3.22;2.47;;;;;;;14.73;82.34;94926.75;5061933;28;20033;-79
2023/09/05 00:39:34;;;;;;;2.95;2.40;;;;;;;14.60;82.51;94900.16;5078378;28;20083;-79
2023/09/05 00:42:00;;;;;;;4.18;2.22;;;;;;;14.72;82.35;94932.13;5052883;28;20075;-78
2023/09/05 00:44:26;;;;;;;2.97;2.45;;;;;;;14.69;82.96;94927.22;5072553;28;20409;-78
2023/09/05 00:46:58;;;;;;;3.15;2.20;;;;;;;14.37;82.66;94896.31;5054442;28;20024;-78
2023/09/05 00:49:27;;;;;;;4.95;2.30;;;;;;;14.51;83.71;94935.00;5082815;28;20413;-79
2023/09/05 00:51:59;;;;;;;3.75;2.05;;;;;;;14.39;83.21;94902.22;5076609;28;20024;-79
2023/09/05 00:54:24;;;;;;;4.30;1.90;;;;;;;14.45;83.38;94894.59;5092462;28;20044;-79
2023/09/05 00:56:49;;;;;;;2.25;1.77;;;;;;;14.57;83.65;94920.53;5074160;28;20031;-78
2023/09/05 00:59:15;;;;;;;2.58;1.88;;;;;;;14.47;84.58;94929.25;5091198;28;20035;-79
2023/09/05 01:01:41;;;;;;;3.38;2.00;;;;;;;14.38;83.94;94911.03;5058987;28;20378;-79
2023/09/05 01:04:06;;;;;;;2.83;1.58;;;;;;;14.55;84.60;94931.16;5064848;28;20048;-79
2023/09/05 01:06:57;;;;;;;3.10;1.58;;;;;;;14.57;83.78;94931.84;5056926;28;20032;-79
2023/09/05 01:10:02;;;;;;;2.47;1.52;;;;;;;14.48;84.02;94935.28;5071873;28;20525;-79
2023/09/05 01:12:27;;;;;;;3.10;1.60;;;;;;;14.34;84.19;94901.81;5073844;28;20029;-78
2023/09/05 01:14:53;;;;;;;2.33;1.52;;;;;;;14.27;84.07;94886.75;5055032;28;20115;-77
2023/09/05 01:17:18;;;;;;;2.25;1.40;;;;;;;14.61;82.68;94930.56;5054262;28;20033;-77
2023/09/05 01:19:44;;;;;;;1.92;1.42;;;;;;;14.65;84.21;94937.13;5071755;28;20036;-77
2023/09/05 01:22:16;;;;;;;2.10;1.33;;;;;;;14.67;83.62;94939.59;5071807;28;20391;-77
2023/09/05 01:24:42;;;;;;;3.75;1.70;;;;;;;14.69;82.06;94933.25;5081819;28;20123;-77
2023/09/05 01:27:08;;;;;;;2.28;1.60;;;;;;;14.67;83.43;94929.13;5071823;28;20120;-78
2023/09/05 01:29:38;;;;;;;2.97;1.65;;;;;;;14.74;84.12;94920.56;5071725;28;20135;-77
2023/09/05 01:32:05;;;;;;;2.67;1.60;;;;;;;14.77;82.72;94913.38;5055859;28;20524;-78
2023/09/05 01:34:30;;;;;;;2.47;1.70;;;;;;;14.68;83.16;94900.25;5079713;28;20122;-77
2023/09/05 01:36:56;;;;;;;2.65;1.60;;;;;;;14.76;83.47;94912.53;5062626;28;20111;-78
2023/09/05 01:39:22;;;;;;;2.03;1.58;;;;;;;14.83;83.15;94923.25;5080265;28;20024;-77
2023/09/05 01:41:48;;;;;;;2.20;1.75;;;;;;;14.74;81.61;94904.88;5091554;28;20032;-77
2023/09/05 01:44:14;;;;;;;3.95;1.90;;;;;;;14.78;81.65;94909.78;5073418;28;20050;-79
2023/09/05 01:46:40;;;;;;;2.20;1.77;;;;;;;14.53;80.07;94891.28;5055088;28;20111;-79
2023/09/05 01:49:05;;;;;;;2.53;2.08;;;;;;;14.61;81.31;94899.19;5046825;28;20493;-78
2023/09/05 01:51:31;;;;;;;3.30;2.00;;;;;;;14.70;81.52;94903.50;5086529;28;20476;-80
2023/09/05 01:53:56;;;;;;;4.85;2.20;;;;;;;14.83;81.23;94903.13;5080842;28;20494;-80
2023/09/05 01:56:22;;;;;;;4.63;2.17;;;;;;;14.79;81.52;94907.00;5083455;28;20028;-79
2023/09/05 01:58:47;;;;;;;2.80;2.20;;;;;;;14.69;80.86;94901.06;5082363;28;20209;-79
2023/09/05 02:01:13;;;;;;;2.83;2.08;;;;;;;14.55;81.74;94902.41;5086755;28;20056;-79
2023/09/05 02:03:38;;;;;;;4.10;2.60;;;;;;;14.62;81.85;94902.63;5067199;28;20035;-79
2023/09/05 02:06:04;;;;;;;6.13;2.63;;;;;;;14.76;81.16;94912.53;5065843;28;20490;-79
2023/09/05 02:08:29;;;;;;;4.38;2.60;;;;;;;14.75;81.23;94905.69;5082939;28;20024;-79
2023/09/05 02:10:55;;;;;;;3.95;2.38;;;;;;;14.67;81.55;94901.19;5071518;28;20028;-79
2023/09/05 02:13:20;;;;;;;3.42;2.90;;;;;;;14.87;79.74;94924.56;5066867;28;20037;-77
2023/09/05 02:15:46;;;;;;;4.18;3.20;;;;;;;14.53;80.74;94917.41;5057645;28;20459;-78
2023/09/05 02:18:11;;;;;;;3.70;3.05;;;;;;;14.58;80.87;94933.47;5071214;28;20032;-77
2023/09/05 02:20:39;;;;;;;3.17;2.83;;;;;;;14.56;80.91;94940.63;5068522;28;20441;-77
2023/09/05 02:23:05;;;;;;;4.88;3.47;;;;;;;14.49;80.86;94926.50;5085875;28;20028;-77
2023/09/05 02:25:30;;;;;;;6.07;3.60;;;;;;;14.51;80.51;94914.94;5078931;28;20032;-77
2023/09/05 02:27:56;;;;;;;4.85;4.07;;;;;;;14.57;80.83;94928.38;5069969;28;20039;-77
2023/09/05 02:30:21;;;;;;;6.97;4.30;;;;;;;14.52;81.20;94918.38;5056896;28;20093;-77
2023/09/05 02:32:53;;;;;;;6.25;4.28;;;;;;;14.40;81.23;94915.16;5090056;28;20016;-77
2023/09/05 02:35:21;;;;;;;6.03;4.53;;;;;;;14.47;81.81;94924.03;5086646;28;20525;-77
2023/09/05 02:37:53;;;;;;;5.13;4.50;;;;;;;14.47;82.44;94933.66;5071858;28;20085;-77
2023/09/05 02:40:18;;;;;;;4.80;4.30;;;;;;;14.52;81.23;94926.22;5075733;28;20039;-77
2023/09/05 02:42:44;;;;;;;5.15;4.40;;;;;;;14.57;82.00;94923.16;5039181;28;20028;-77
2023/09/05 02:45:10;;;;;;;6.63;5.00;;;;;;;14.28;81.11;94888.38;5075931;28;20101;-77
2023/09/05 02:47:35;;;;;;;5.78;4.95;;;;;;;14.51;80.98;94930.59;5071977;28;20036;-77
2023/09/05 02:50:00;;;;;;;10.65;4.80;;;;;;;14.51;81.33;94930.59;5089169;28;20528;-77
2023/09/05 02:52:26;;;;;;;7.50;4.53;;;;;;;14.35;81.97;94908.69;5071941;28;20087;-77
2023/09/05 02:54:52;;;;;;;5.68;5.07;;;;;;;14.60;80.59;94933.31;5054012;28;20493;-78
2023/09/05 02:57:17;;;;;;;6.00;4.70;;;;;;;14.25;81.14;94888.69;5043171;28;20025;-77
2023/09/05 02:59:43;;;;;;;6.75;4.90;;;;;;;14.30;81.26;94896.91;5089671;28;20117;-77
2023/09/05 03:02:08;;;;;;;7.35;4.75;;;;;;;14.53;81.11;94923.44;5087409;28;20069;-78
2023/09/05 03:04:34;;;;;;;6.82;5.13;;;;;;;14.43;81.33;94927.91;5054798;28;20039;-77
2023/09/05 03:07:01;;;;;;;7.10;5.45;;;;;;;14.22;81.08;94899.44;5086586;28;20031;-78
2023/09/05 03:09:26;;;;;;;9.48;5.50;;;;;;;14.26;81.86;94926.06;5086528;28;20115;-78
2023/09/05 03:11:51;;;;;;;6.30;5.20;;;;;;;14.49;81.09;94926.50;5072578;28;20084;-78
2023/09/05 03:14:17;;;;;;;7.45;5.55;;;;;;;14.21;81.35;94905.63;5086363;28;20024;-77
2023/09/05 03:16:42;;;;;;;6.15;5.55;;;;;;;14.41;80.39;94934.25;5075058;28;20040;-77
2023/09/05 03:19:11;;;;;;;7.35;5.60;;;;;;;14.37;80.62;94927.66;5084466;28;20020;-77
2023/09/05 03:21:37;;;;;;;7.40;5.38;;;;;;;14.35;80.17;94935.66;5089665;28;20119;-77
2023/09/05 03:24:02;;;;;;;6.53;5.75;;;;;;;14.00;80.01;94899.84;5070701;28;20826;-78
2023/09/05 03:26:28;;;;;;;6.57;5.22;;;;;;;14.00;80.35;94929.38;5070607;28;20526;-78
2023/09/05 03:28:53;;;;;;;8.70;5.75;;;;;;;14.15;80.72;94953.25;5071730;28;20445;-78
2023/09/05 03:31:18;;;;;;;9.30;5.85;;;;;;;14.08;80.43;94954.78;5089973;28;20028;-77
2023/09/05 03:33:44;;;;;;;6.75;5.70;;;;;;;14.08;80.72;94963.44;5052400;28;20043;-78
2023/09/05 03:36:11;;;;;;;7.38;5.90;;;;;;;13.97;81.16;94962.81;5063334;28;20435;-77
2023/09/05 03:38:36;;;;;;;5.60;5.00;;;;;;;14.05;80.03;94966.34;5067978;28;20087;-77
2023/09/05 03:41:01;;;;;;;6.70;5.68;;;;;;;14.04;80.60;94953.41;5079544;28;20558;-77
2023/09/05 03:43:27;;;;;;;8.70;6.00;;;;;;;13.93;81.66;94964.03;5088781;28;20544;-77
2023/09/05 03:45:53;;;;;;;6.50;5.75;;;;;;;13.94;81.36;94961.31;5063618;28;20029;-77
2023/09/05 03:48:18;;;;;;;6.40;5.50;;;;;;;13.75;81.53;94930.84;5070790;28;20077;-77
2023/09/05 03:50:44;;;;;;;9.13;6.03;;;;;;;13.81;81.48;94953.78;5059354;28;20391;-77
2023/09/05 03:53:12;;;;;;;10.07;6.22;;;;;;;13.75;82.11;94949.13;5077750;28;20035;-77
2023/09/05 03:55:37;;;;;;;8.75;6.18;;;;;;;13.74;81.67;94939.66;5075378;28;20040;-77
2023/09/05 03:58:03;;;;;;;6.68;5.97;;;;;;;13.56;82.21;94928.31;5068708;28;20040;-77
2023/09/05 04:00:29;;;;;;;6.95;5.85;;;;;;;13.68;82.11;94937.63;5070327;28;20422;-77
2023/09/05 04:02:55;;;;;;;7.28;6.20;;;;;;;13.71;82.14;94941.75;5088320;28;20097;-78
2023/09/05 04:05:21;;;;;;;8.00;6.15;;;;;;;13.59;82.09;94952.34;5051170;28;20021;-78
2023/09/05 04:07:47;;;;;;;8.52;7.00;;;;;;;13.68;82.90;94958.53;5087720;28;20078;-77
2023/09/05 04:10:12;;;;;;;7.45;6.68;;;;;;;13.47;82.94;94950.06;5067350;28;20032;-77
2023/09/05 04:12:38;;;;;;;8.10;6.90;;;;;;;13.64;83.02;94952.75;5087717;28;20536;-77
2023/09/05 04:15:04;;;;;;;8.10;6.78;;;;;;;13.60;83.37;94963.63;5085599;28;20130;-77
2023/09/05 04:17:29;;;;;;;7.40;6.63;;;;;;;13.57;83.52;94961.31;5076270;28;20051;-77
2023/09/05 04:24:23;;;;;;;8.07;6.78;;;;;;;13.10;84.21;94940.34;5067297;28;20391;-77
2023/09/05 04:26:48;;;;;;;12.02;6.68;;;;;;;13.12;85.06;94956.66;5044881;28;20430;-77
2023/09/05 04:29:13;;;;;;;11.55;7.28;;;;;;;13.13;85.88;94953.13;5029239;28;20049;-76
2023/09/05 04:31:39;;;;;;;7.75;6.70;;;;;;;13.47;85.83;94957.88;5024808;28;20034;-76
2023/09/05 04:34:04;;;;;;;10.90;7.35;;;;;;;13.50;85.46;94960.22;5026585;28;20038;-76
2023/09/05 04:36:30;;;;;;;8.13;6.72;;;;;;;13.37;85.92;94940.47;5013500;28;20037;-76
2023/09/05 04:38:55;;;;;;;8.15;6.80;;;;;;;13.65;86.65;94964.03;5045982;28;20044;-76
2023/09/05 04:41:20;;;;;;;7.28;6.43;;;;;;;13.43;86.87;94933.88;5046245;28;20479;-76
2023/09/05 04:43:47;;;;;;;9.38;7.40;;;;;;;13.75;87.60;94945.72;5030216;28;20482;-76
2023/09/05 04:46:12;;;;;;;8.50;7.13;;;;;;;13.88;87.14;94955.84;5046708;28;20029;-76
2023/09/05 04:48:38;;;;;;;10.35;7.35;;;;;;;13.97;87.47;94957.59;5046178;28;20422;-76
2023/09/05 04:51:03;;;;;;;9.27;6.63;;;;;;;14.09;87.12;94954.63;5046555;28;20104;-76
2023/09/05 04:53:32;;;;;;;8.18;7.38;;;;;;;14.07;86.92;94947.91;5046522;28;20052;-76
2023/09/05 04:56:00;;;;;;;8.73;7.55;;;;;;;14.04;87.05;94938.59;5045890;28;20068;-76
2023/09/05 04:58:29;;;;;;;8.75;7.00;;;;;;;14.03;87.33;94941.31;5029398;28;20114;-76
2023/09/05 05:01:02;;;;;;;8.30;7.25;;;;;;;14.34;87.71;94952.28;5029578;28;20041;-76
2023/09/05 05:03:36;;;;;;;8.57;7.68;;;;;;;14.31;86.79;94965.66;5047371;28;20072;-76
2023/09/05 05:06:02;;;;;;;9.05;7.55;;;;;;;14.26;86.45;94953.03;5046313;28;20025;-76
2023/09/05 05:08:28;;;;;;;9.77;8.00;;;;;;;14.34;85.45;94967.16;5029448;28;20033;-76
2023/09/05 05:10:54;;;;;;;8.40;7.53;;;;;;;14.27;86.40;94972.97;5029273;28;20505;-76
2023/09/05 05:13:20;;;;;;;8.88;7.97;;;;;;;14.15;86.83;94950.63;5029694;28;20048;-76
2023/09/05 05:15:46;;;;;;;8.95;8.05;;;;;;;14.27;86.95;94959.91;5029353;28;20040;-76
2023/09/05 05:18:12;;;;;;;9.25;8.35;;;;;;;14.55;86.36;94970.38;5046175;28;20128;-76
2023/09/05 05:20:37;;;;;;;10.45;8.40;;;;;;;14.64;86.38;94972.09;5029458;28;20029;-76
2023/09/05 05:23:04;;;;;;;9.80;8.80;;;;;;;14.58;86.90;94970.06;5028530;28;20049;-76
2023/09/05 05:25:29;;;;;;;10.43;8.45;;;;;;;14.66;86.95;94975.38;5029385;28;20018;-76
2023/09/05 05:27:55;;;;;;;10.88;8.50;;;;;;;14.93;87.38;94971.88;5045432;28;20090;-76
2023/09/05 05:30:20;;;;;;;11.05;8.77;;;;;;;14.85;87.10;94958.75;5046592;28;20054;-76
2023/09/05 05:32:47;;;;;;;9.90;8.75;;;;;;;14.81;86.96;94946.09;5028800;28;20549;-76
2023/09/05 05:35:12;;;;;;;10.20;9.13;;;;;;;14.93;86.81;94971.88;5019256;28;20039;-76
2023/09/05 05:37:37;;;;;;;15.32;9.70;;;;;;;14.89;86.24;94967.09;5031689;28;20030;-76
2023/09/05 05:40:03;;;;;;;11.68;9.20;;;;;;;15.18;85.78;94979.94;5032073;28;20503;-76
2023/09/05 05:42:29;;;;;;;10.82;8.55;;;;;;;15.29;85.78;94960.56;5031232;28;20077;-76
2023/09/05 05:44:54;;;;;;;11.38;9.18;;;;;;;15.53;84.83;94979.06;5032187;28;20029;-76
2023/09/05 05:47:20;;;;;;;10.35;9.20;;;;;;;15.50;84.25;94981.97;5027408;28;20048;-76
2023/09/05 05:49:45;;;;;;;10.50;9.40;;;;;;;15.51;84.04;94986.22;5031927;28;20037;-76
2023/09/05 05:52:11;;;;;;;11.63;9.30;;;;;;;15.31;84.40;94974.31;5033142;28;20021;-76
2023/09/05 05:54:36;;;;;;;10.13;8.07;;;;;;;15.55;84.75;94971.88;5035916;28;20029;-76
2023/09/05 05:57:02;;;;;;;10.65;8.95;;;;;;;15.68;84.81;94987.19;5015541;28;20022;-76
2023/09/05 05:59:27;;;;;;;9.60;8.60;;;;;;;15.74;85.05;94991.00;5031884;28;20069;-76
2023/09/05 06:01:53;;;;;;;13.23;9.43;;;;;;;15.62;84.69;94983.38;5016448;28;20026;-76
2023/09/05 06:04:23;;;;;;;10.38;9.18;;;;;;;15.80;84.43;94980.75;5065079;28;20036;-76
2023/09/05 06:06:49;;;;;;;13.63;10.93;;;;;;;15.71;84.59;94981.69;5047232;28;20060;-76
2023/09/05 06:09:20;;;;;;;10.95;9.73;;;;;;;15.72;84.76;94970.22;5014216;28;20021;-77
2023/09/05 06:11:46;;;;;;;10.38;9.13;;;;;;;15.95;84.12;94983.59;5015869;28;20128;-76
2023/09/05 06:14:12;;;;;;;10.95;9.85;;;;;;;15.99;83.85;94974.47;5031971;28;20030;-76
2023/09/05 06:16:37;;;;;;;12.40;10.43;;;;;;;15.93;83.75;94982.09;5030910;28;20037;-76
2023/09/05 06:19:03;;;;;;;10.65;9.55;;;;;;;15.85;83.86;94980.25;5031336;28;20068;-80
2023/09/05 06:21:28;;;;;;;12.60;10.07;;;;;;;16.04;83.48;94982.66;5047562;28;20029;-78
2023/09/05 06:23:54;;;;;;;14.82;8.95;;;;;;;15.85;83.66;94954.06;5032245;28;20045;-77
2023/09/05 06:26:20;;;;;;;10.60;9.50;;;;;;;16.11;83.26;94979.44;5031219;28;20494;-77
2023/09/05 06:28:45;;;;;;;13.05;11.00;;;;;;;15.96;83.25;94964.25;5014170;28;20625;-77
2023/09/05 06:31:11;;;;;;;11.50;10.05;;;;;;;16.14;83.16;94971.25;5030300;28;20036;-77
2023/09/05 06:33:36;;;;;;;12.25;10.65;;;;;;;16.33;82.97;94983.28;5063554;28;20037;-78
2023/09/05 06:36:06;;;;;;;11.27;9.98;;;;;;;16.42;83.06;94985.78;4996544;28;20030;-78
2023/09/05 07:16:37;;;;;;;12.18;11.00;;;;;;;16.27;78.27;95022.25;5042617;27;20392;-71
2023/09/05 07:51:11;;;;;;;8.48;7.68;;;;;;;15.94;76.79;95059.75;5115867;27;20401;-71
2023/09/05 07:53:37;;;;;;;9.25;7.63;;;;;;;15.98;76.52;95063.69;5107291;28;20044;-71
2023/09/05 07:56:03;;;;;;;9.13;8.23;;;;;;;15.84;77.51;95060.63;5088423;28;20062;-71
2023/09/05 07:58:32;;;;;;;9.57;8.57;;;;;;;15.64;76.99;95039.03;5105147;28;20023;-71
2023/09/05 08:00:57;;;;;;;10.25;9.32;;;;;;;15.92;77.26;95078.22;5072238;28;20060;-72
2023/09/05 08:03:26;;;;;;;12.57;11.30;;;;;;;16.14;75.93;95060.34;5072632;28;20036;-70
2023/09/05 08:05:53;;;;;;;16.13;14.52;;;;;;;16.09;77.12;95072.09;5064249;28;20080;-71
2023/09/05 08:08:19;;;;;;;9.18;8.23;;;;;;;16.09;76.17;95069.47;5066308;28;20649;-71
2023/09/05 08:10:45;;;;;;;10.48;8.07;;;;;;;16.14;75.96;95070.81;5065171;28;20025;-72
2023/09/05 08:13:12;;;;;;;8.73;7.15;;;;;;;16.28;75.37;95067.63;5064940;28;20090;-69
2023/09/05 08:15:38;;;;;;;8.93;8.07;;;;;;;16.27;73.99;95061.56;5067869;28;20044;-71
2023/09/05 08:18:04;;;;;;;10.10;8.32;;;;;;;16.32;75.13;95063.72;5049812;28;20037;-70
2023/09/05 08:20:29;;;;;;;8.95;8.05;;;;;;;16.31;74.63;95048.97;5066298;28;20489;-71
2023/09/05 08:22:55;;;;;;;8.07;7.28;;;;;;;16.50;74.03;95051.34;5066142;28;20568;-71
2023/09/05 08:25:24;;;;;;;8.15;7.28;;;;;;;16.58;73.47;95062.88;5066293;28;20078;-71
2023/09/05 08:27:50;;;;;;;7.97;7.18;;;;;;;16.80;71.84;95057.06;5034037;28;20032;-72
2023/09/05 08:30:15;;;;;;;8.32;7.47;;;;;;;16.81;72.07;95027.22;5049679;28;20082;-71
2023/09/05 08:32:41;;;;;;;9.35;7.35;;;;;;;16.94;72.29;95059.09;5049418;28;20037;-71
2023/09/05 08:35:10;;;;;;;8.20;7.40;;;;;;;16.93;70.99;95052.16;5048803;28;20052;-71
2023/09/05 08:37:36;;;;;;;9.43;7.63;;;;;;;17.01;71.04;95054.00;5049618;28;20039;-70
2023/09/05 08:40:03;;;;;;;7.38;6.68;;;;;;;17.04;71.25;95063.34;5065703;28;20036;-70
2023/09/05 08:42:30;;;;;;;9.13;7.10;;;;;;;17.32;71.70;95048.97;5049451;28;20486;-71
2023/09/05 08:44:55;;;;;;;8.95;6.75;;;;;;;17.40;69.75;95056.84;5049298;28;20040;-71
2023/09/05 08:47:21;;;;;;;10.77;6.65;;;;;;;17.53;69.62;95055.56;5049077;28;20041;-71
2023/09/05 08:49:46;;;;;;;6.45;5.80;;;;;;;17.53;68.75;95060.81;5066696;28;20053;-71
2023/09/05 08:52:12;;;;;;;7.55;6.28;;;;;;;17.79;67.85;95063.28;5035568;28;20391;-71
2023/09/05 08:54:37;;;;;;;7.57;5.97;;;;;;;17.61;67.93;95056.38;5035647;28;20052;-71
2023/09/05 08:57:03;;;;;;;8.50;6.38;;;;;;;17.71;66.61;95069.31;5052243;28;20487;-71
2023/09/05 08:59:29;;;;;;;8.05;6.85;;;;;;;17.79;66.23;95061.47;5019287;28;20087;-71
2023/09/05 09:01:54;;;;;;;9.52;6.68;;;;;;;17.74;66.98;95024.34;5035649;28;20589;-71
2023/09/05 09:04:21;;;;;;;7.75;6.45;;;;;;;17.76;67.14;95050.47;5052020;28;20037;-72
2023/09/05 09:06:53;;;;;;;6.13;4.85;;;;;;;17.94;63.86;95066.91;5035705;28;20505;-71
2023/09/05 09:09:40;;;;;;;6.32;5.32;;;;;;;18.09;63.88;95064.41;5051952;28;20029;-72
2023/09/05 09:12:06;;;;;;;7.78;5.60;;;;;;;18.05;65.10;95063.09;5052112;28;20028;-71
2023/09/05 09:14:31;;;;;;;6.03;4.90;;;;;;;18.14;63.57;95077.88;5018865;28;20052;-72
2023/09/05 09:17:01;;;;;;;6.47;5.50;;;;;;;18.12;65.96;95050.94;5035379;28;20036;-71
2023/09/05 09:19:30;;;;;;;7.10;5.20;;;;;;;18.29;63.00;95055.16;5018748;28;20418;-71
2023/09/05 09:21:59;;;;;;;7.63;5.80;;;;;;;18.28;62.84;95050.09;5019511;28;20520;-71
2023/09/05 09:24:30;;;;;;;5.55;4.95;;;;;;;18.43;63.10;95045.75;5051616;28;20029;-72
2023/09/05 09:26:55;;;;;;;5.93;5.03;;;;;;;18.39;61.89;95049.72;5035768;28;20502;-71
2023/09/05 09:29:21;;;;;;;6.20;4.95;;;;;;;18.50;61.26;95051.16;5051739;28;20041;-70
2023/09/05 09:31:47;;;;;;;5.15;4.07;;;;;;;18.51;60.58;95052.78;5051681;28;20032;-70
2023/09/05 09:34:13;;;;;;;6.85;4.80;;;;;;;18.58;60.89;95050.28;5051695;28;20564;-70
2023/09/05 09:36:38;;;;;;;5.68;4.05;;;;;;;18.43;59.10;95047.56;5051465;28;20025;-71
2023/09/05 09:39:10;;;;;;;4.38;3.97;;;;;;;18.37;59.15;95040.34;5018254;28;20037;-71
2023/09/05 09:41:43;;;;;;;4.65;3.72;;;;;;;18.33;59.84;95033.78;5034921;28;20110;-71
2023/09/05 09:44:09;;;;;;;5.95;4.60;;;;;;;18.78;59.99;95034.94;5051460;28;20051;-70
2023/09/05 09:46:35;;;;;;;5.07;4.03;;;;;;;18.75;58.49;95044.03;5035070;28;20025;-70
2023/09/05 09:49:00;;;;;;;9.10;4.25;;;;;;;18.65;56.91;95014.44;5034488;28;20040;-70
2023/09/05 09:51:25;;;;;;;6.30;4.00;;;;;;;19.18;56.44;95039.16;5034712;28;20086;-70
2023/09/05 09:53:51;;;;;;;5.38;3.80;;;;;;;19.09;56.89;95022.59;5034529;28;20060;-71
2023/09/05 09:56:18;;;;;;;5.35;3.67;;;;;;;19.02;54.98;95011.13;5034559;28;20040;-70
2023/09/05 09:58:45;;;;;;;5.18;4.05;;;;;;;19.18;55.23;95034.72;5054502;28;20446;-70
2023/09/05 10:01:13;;;;;;;4.10;3.70;;;;;;;19.08;55.79;95034.13;5034415;28;20040;-70
2023/09/05 10:03:40;;;;;;;7.00;3.60;;;;;;;19.20;55.17;95035.38;5036502;28;20044;-70
2023/09/05 10:06:06;;;;;;;7.15;3.83;;;;;;;19.25;55.20;95034.00;5054475;28;20069;-70
2023/09/05 10:08:32;;;;;;;5.88;3.88;;;;;;;19.00;54.64;95044.72;5053961;28;20027;-71
2023/09/05 10:10:58;;;;;;;4.95;3.60;;;;;;;18.86;54.76;95012.06;5070714;28;20031;-72
2023/09/05 10:13:27;;;;;;;8.23;3.95;;;;;;;18.75;54.47;95017.72;5053852;28;20059;-69
2023/09/05 10:15:53;;;;;;;6.63;4.35;;;;;;;18.92;55.33;95023.72;5050645;28;20491;-69
2023/09/05 10:18:19;;;;;;;4.05;3.63;;;;;;;19.05;54.61;95036.28;5017656;28;20060;-71
2023/09/05 10:20:46;;;;;;;6.78;4.00;;;;;;;19.20;54.95;95032.75;5017389;28;20033;-70
2023/09/05 10:23:11;;;;;;;5.65;3.67;;;;;;;19.43;54.82;95026.66;5017630;28;20029;-70
2023/09/05 10:25:37;;;;;;;3.72;2.90;;;;;;;19.67;53.81;95032.75;5033861;28;20418;-72
2023/09/05 10:28:03;;;;;;;5.35;3.40;;;;;;;19.60;54.14;95020.25;5050448;28;20505;-71
2023/09/05 10:30:28;;;;;;;4.38;3.35;;;;;;;19.75;52.58;95027.41;5050263;28;20037;-69
2023/09/05 10:32:54;;;;;;;4.00;3.50;;;;;;;19.74;52.90;95036.31;5034093;28;20024;-70
2023/09/05 10:35:20;;;;;;;4.15;3.17;;;;;;;19.77;52.76;95046.50;5050317;28;20493;-70
2023/09/05 10:37:58;;;;;;;4.47;3.28;;;;;;;19.75;52.50;95040.56;5050188;28;20028;-73
2023/09/05 10:40:36;;;;;;;4.38;3.20;;;;;;;19.60;52.24;95038.69;5034586;28;20044;-68
2023/09/05 10:43:04;;;;;;;5.38;3.22;;;;;;;19.75;51.76;95030.88;5050549;28;20025;-70
2023/09/05 10:45:31;;;;;;;5.53;3.38;;;;;;;19.81;51.36;95029.34;5017136;28;20037;-70
2023/09/05 10:47:59;;;;;;;5.93;2.97;;;;;;;20.08;51.72;95041.91;5050099;28;20032;-71
2023/09/05 10:50:25;;;;;;;4.15;3.10;;;;;;;19.99;51.64;95039.53;5017128;28;20549;-71
2023/09/05 10:53:12;;;;;;;4.07;3.08;;;;;;;20.07;50.23;95040.28;5033243;28;20033;-71
2023/09/05 10:55:44;;;;;;;4.40;2.83;;;;;;;19.79;50.76;95041.88;5049775;28;20469;-71
2023/09/05 10:58:56;;;;;;;6.20;3.35;;;;;;;19.97;51.23;95034.44;5050011;28;20021;-71
2023/09/05 11:01:31;;;;;;;3.53;2.90;;;;;;;20.00;50.83;95028.00;5034637;28;20087;-71
2023/09/05 11:04:03;;;;;;;3.10;2.63;;;;;;;19.95;51.12;95036.47;5051017;28;20060;-71
2023/09/05 11:06:29;;;;;;;4.80;3.05;;;;;;;19.96;50.50;95022.28;5049887;28;20024;-71
2023/09/05 11:09:04;;;;;;;5.47;2.90;;;;;;;20.15;49.68;95042.03;5049777;28;20036;-70
2023/09/05 11:11:30;;;;;;;3.55;3.03;;;;;;;20.21;50.07;95040.50;5025183;28;20055;-70
2023/09/05 11:13:57;;;;;;;3.60;2.63;;;;;;;20.35;49.67;95033.59;5023031;28;20041;-70
2023/09/05 11:16:22;;;;;;;5.85;2.72;;;;;;;20.43;48.80;95029.03;5073186;28;20020;-70
2023/09/05 11:18:54;;;;;;;5.20;2.72;;;;;;;20.38;48.73;95017.38;5048447;28;20457;-70
2023/09/05 11:21:23;;;;;;;4.88;2.80;;;;;;;20.52;49.10;95022.66;5058808;28;20029;-70
2023/09/05 11:23:53;;;;;;;4.32;2.80;;;;;;;20.60;47.27;95026.22;5056768;28;20086;-70
2023/09/05 11:26:18;;;;;;;5.90;2.78;;;;;;;20.55;47.87;95010.94;5053858;28;20029;-70
2023/09/05 11:28:45;;;;;;;4.55;2.63;;;;;;;20.71;47.85;95020.47;5045347;28;20124;-70
2023/09/05 11:31:11;;;;;;;3.65;3.10;;;;;;;20.83;48.21;95021.63;5049521;28;20033;-71
2023/09/05 11:33:39;;;;;;;4.05;3.10;;;;;;;21.06;48.62;95018.88;5052470;28;20024;-70
2023/09/05 11:36:05;;;;;;;3.90;2.60;;;;;;;21.03;48.74;95000.72;5038218;28;20033;-70
2023/09/05 11:38:39;;;;;;;8.77;2.97;;;;;;;20.83;48.07;95023.47;5048969;28;20021;-70
2023/09/05 11:41:08;;;;;;;3.20;2.72;;;;;;;20.93;47.67;95024.81;5046977;28;20297;-70
2023/09/05 11:43:35;;;;;;;4.57;2.72;;;;;;;20.98;47.99;95014.50;5048545;28;20037;-70
2023/09/05 11:46:00;;;;;;;2.90;2.60;;;;;;;21.02;46.66;95009.66;5043420;28;20024;-70
2023/09/05 11:48:28;;;;;;;4.32;2.72;;;;;;;21.14;47.16;95010.81;5034109;28;20033;-70
2023/09/05 11:50:53;;;;;;;3.60;2.67;;;;;;;21.33;46.99;95008.56;5063228;28;20053;-70
2023/09/05 11:53:19;;;;;;;3.20;2.40;;;;;;;21.37;46.82;95039.75;5050149;28;20020;-71
2023/09/05 11:55:44;;;;;;;4.95;3.05;;;;;;;21.30;46.17;95015.03;5029403;28;20040;-70
2023/09/05 11:58:10;;;;;;;7.13;2.90;;;;;;;21.29;46.07;95021.34;5014223;28;20025;-71
2023/09/05 12:00:44;;;;;;;6.22;2.97;;;;;;;21.33;47.07;95008.56;5036982;28;20092;-71
2023/09/05 12:03:09;;;;;;;5.18;2.75;;;;;;;21.38;45.90;95000.91;5051237;28;20405;-71
2023/09/05 12:05:38;;;;;;;3.72;2.90;;;;;;;21.40;45.67;95010.28;5067531;28;20044;-71
2023/09/05 12:08:05;;;;;;;5.10;2.97;;;;;;;21.39;45.52;95010.47;5051365;28;20044;-71
2023/09/05 12:10:38;;;;;;;5.63;2.50;;;;;;;20.91;45.92;95026.81;5069273;28;20043;-69
2023/09/05 12:13:04;;;;;;;5.00;2.60;;;;;;;21.07;46.20;95015.22;5044198;28;20033;-70
2023/09/05 12:15:30;;;;;;;3.58;2.72;;;;;;;21.10;45.72;95008.75;5032796;28;20056;-71
2023/09/05 12:17:59;;;;;;;4.35;3.03;;;;;;;20.98;46.03;94995.22;5048554;28;20025;-71
2023/09/05 12:20:25;;;;;;;3.83;2.60;;;;;;;21.17;46.64;95022.81;5032370;28;20033;-70
2023/09/05 12:22:50;;;;;;;3.65;2.97;;;;;;;21.07;47.09;95001.19;5032236;28;20021;-70
2023/09/05 12:25:16;;;;;;;3.67;2.70;;;;;;;21.12;46.53;95001.47;5049047;28;20086;-70
2023/09/05 12:27:46;;;;;;;3.63;2.90;;;;;;;21.11;47.04;95016.47;5036246;28;20111;-70
2023/09/05 12:30:24;;;;;;;3.25;2.50;;;;;;;21.10;47.43;95017.47;5019570;28;20410;-70
2023/09/05 12:32:50;;;;;;;6.53;3.45;;;;;;;20.90;48.16;95003.25;5053745;28;20021;-71
2023/09/05 12:35:15;;;;;;;5.15;3.10;;;;;;;21.14;48.25;94999.44;5036038;28;20040;-71
2023/09/05 12:37:41;;;;;;;5.28;2.90;;;;;;;21.40;48.15;95006.84;5035744;28;20029;-71
2023/09/05 12:40:07;;;;;;;9.20;3.08;;;;;;;21.40;46.95;94993.63;5019139;28;20407;-71
2023/09/05 12:42:32;;;;;;;5.82;2.33;;;;;;;21.43;45.66;94993.25;5035776;28;20029;-74
2023/09/05 12:44:58;;;;;;;3.80;2.90;;;;;;;21.39;45.21;94976.94;5019232;28;20036;-72